| time (UTC) | temp F | wind direction | speed MPH | gust MPH | rain 1hr in | rain 24hr in | rain mn in | humidity % | barometer mb |
| 20260508193025 | 53 | 88 | 4.0 | 7.0 | 0.00 | 0.73 | 0.00 | 68 | 1000.6 |
| 20260508191536 | 55 | 46 | 4.0 | 10.0 | 0.00 | 0.73 | 0.00 | 64 | 1000.4 |
| 20260508190030 | 55 | 30 | 5.0 | 11.0 | 0.00 | 0.73 | 0.00 | 64 | 1000.5 |
| 20260508184532 | 55 | 51 | 6.0 | 10.0 | 0.00 | 0.83 | 0.00 | 61 | 1000.4 |
| 20260508183028 | 55 | 55 | 5.0 | 12.0 | 0.00 | 0.83 | 0.00 | 65 | 1000.3 |
| 20260508181525 | 54 | 43 | 6.0 | 10.0 | 0.00 | 0.83 | 0.00 | 66 | 1000.5 |
| 20260508180028 | 55 | 5 | 5.0 | 8.0 | 0.00 | 0.83 | 0.00 | 69 | 1001.0 |
| 20260508174530 | 55 | 43 | 3.0 | 10.0 | 0.00 | 0.84 | 0.00 | 72 | 1001.0 |
| 20260508173029 | 54 | 24 | 4.0 | 8.0 | 0.00 | 0.84 | 0.00 | 73 | 1001.0 |
| 20260508171529 | 53 | 10 | 3.0 | 9.0 | 0.00 | 0.84 | 0.00 | 76 | 1001.0 |
| 20260508170026 | 53 | 21 | 4.0 | 7.0 | 0.00 | 0.84 | 0.00 | 76 | 1001.1 |
| 20260508164526 | 51 | 2 | 2.0 | 6.0 | 0.00 | 0.84 | 0.00 | 79 | 1001.3 |
| 20260508163029 | 50 | 37 | 4.0 | 8.0 | 0.00 | 0.84 | 0.00 | 80 | 1001.2 |
| 20260508161530 | 50 | 38 | 5.0 | 9.0 | 0.00 | 0.84 | 0.00 | 80 | 1001.0 |
| 20260508160028 | 50 | 33 | 2.0 | 7.0 | 0.00 | 0.84 | 0.00 | 81 | 1001.1 |
| 20260508154537 | 50 | 18 | 5.0 | 9.0 | 0.00 | 0.84 | 0.00 | 79 | 1001.2 |
| 20260508153025 | 51 | 19 | 5.0 | 12.0 | 0.00 | 0.84 | 0.00 | 79 | 1001.1 |
| 20260508151534 | 51 | 35 | 8.0 | 15.0 | 0.00 | 0.84 | 0.00 | 78 | 1000.9 |
| 20260508150029 | 51 | 42 | 7.0 | 11.0 | 0.00 | 0.84 | 0.00 | 83 | 1001.0 |
| 20260508144529 | 50 | 27 | 6.0 | 10.0 | 0.00 | 0.85 | 0.00 | 85 | 1001.1 |
| 20260508143036 | 49 | 28 | 3.0 | 10.0 | 0.00 | 0.85 | 0.00 | 87 | 1001.3 |
| 20260508141526 | 49 | 25 | 7.0 | 13.0 | 0.00 | 0.85 | 0.00 | 87 | 1001.4 |
| 20260508140035 | 48 | 40 | 4.0 | 9.0 | 0.00 | 0.85 | 0.00 | 89 | 1001.5 |
| 20260508134528 | 49 | 49 | 4.0 | 10.0 | 0.00 | 0.85 | 0.00 | 90 | 1001.7 |
| 20260508133026 | 48 | 30 | 4.0 | 9.0 | 0.00 | 0.85 | 0.00 | 92 | 1002.0 |
| 20260508131528 | 48 | 24 | 3.0 | 11.0 | 0.00 | 0.85 | 0.00 | 94 | 1002.1 |
| 20260508130040 | 47 | 24 | 5.0 | 10.0 | 0.00 | 0.85 | 0.00 | 96 | 1001.8 |
| 20260508124533 | 48 | 26 | 5.0 | 9.0 | 0.00 | 0.85 | 0.00 | 97 | 1001.8 |
| 20260508123035 | 47 | 30 | 4.0 | 8.0 | 0.00 | 0.85 | 0.00 | 98 | 1001.9 |
| 20260508121527 | 46 | 359 | 2.0 | 6.0 | 0.00 | 0.85 | 0.00 | 99 | 1001.9 |
| 20260508120028 | 46 | 31 | 3.0 | 6.0 | 0.00 | 0.85 | 0.00 | 99 | 1001.9 |
| 20260508114528 | 45 | 17 | 4.0 | 8.0 | 0.00 | 0.85 | 0.00 | 99 | 1002.1 |
| 20260508113027 | 44 | 14 | 2.0 | 5.0 | 0.00 | 0.85 | 0.00 | 99 | 1001.9 |
| 20260508111525 | 44 | 352 | 1.0 | 6.0 | 0.00 | 0.85 | 0.00 | 99 | 1001.9 |
| 20260508110031 | 42 | 21 | 3.0 | 5.0 | 0.00 | 0.85 | 0.00 | 99 | 1001.9 |
| 20260508104529 | 42 | 10 | 2.0 | 6.0 | 0.00 | 0.85 | 0.00 | 99 | 1002.1 |
| 20260508103032 | 43 | 352 | 2.0 | 5.0 | 0.00 | 0.85 | 0.00 | 100 | 1002.2 |
| 20260508101528 | 43 | 32 | 1.0 | 5.0 | 0.00 | 0.85 | 0.00 | 99 | 1002.2 |
| 20260508100027 | 42 | 0 | 1.0 | 4.0 | 0.00 | 0.85 | 0.00 | 100 | 1002.2 |
| 20260508094541 | 42 | 32 | 3.0 | 6.0 | 0.00 | 0.85 | 0.00 | 99 | 1002.2 |
| 20260508093028 | 42 | 30 | 3.0 | 8.0 | 0.00 | 0.85 | 0.00 | 99 | 1001.9 |
| 20260508091542 | 43 | 32 | 2.0 | 8.0 | 0.00 | 0.85 | 0.00 | 100 | 1002.0 |
| 20260508090035 | 43 | 36 | 4.0 | 10.0 | 0.00 | 0.85 | 0.00 | 99 | 1001.9 |
| 20260508084525 | 42 | 32 | 3.0 | 7.0 | 0.00 | 0.85 | 0.00 | 99 | 1001.5 |
| 20260508083027 | 43 | 42 | 3.0 | 8.0 | 0.00 | 0.85 | 0.00 | 99 | 1001.8 |
| 20260508081533 | 44 | 51 | 5.0 | 8.0 | 0.00 | 0.85 | 0.00 | 99 | 1001.5 |
| 20260508080028 | 44 | 49 | 3.0 | 7.0 | 0.00 | 0.85 | 0.00 | 100 | 1001.5 |
| 20260508074528 | 45 | 51 | 6.0 | 14.0 | 0.00 | 0.85 | 0.00 | 100 | 1001.1 |
| 20260508073026 | 44 | 38 | 3.0 | 6.0 | 0.00 | 0.85 | 0.00 | 100 | 1001.1 |
| 20260508071531 | 43 | 0 | 0.0 | 0.0 | 0.00 | 0.85 | 0.00 | 99 | 1001.2 |
| 20260508070041 | 42 | 0 | 0.0 | 1.0 | 0.00 | 0.85 | 0.00 | 99 | 1001.4 |
| 20260508064534 | 41 | 0 | 0.0 | 0.0 | 0.00 | 0.85 | 0.00 | 99 | 1001.1 |
| 20260508063030 | 41 | 0 | 0.0 | 0.0 | 0.00 | 0.85 | 0.00 | 99 | 1000.9 |
| 20260508061528 | 40 | 0 | 0.0 | 2.0 | 0.00 | 0.85 | 0.00 | 99 | 1001.3 |
| 20260508060035 | 40 | 0 | 0.0 | 4.0 | 0.00 | 0.85 | 0.00 | 99 | 1001.0 |
| 20260508054532 | 44 | 340 | 1.0 | 4.0 | 0.00 | 0.85 | 0.00 | 100 | 1001.3 |
| 20260508053029 | 43 | 201 | 2.0 | 4.0 | 0.00 | 0.85 | 0.00 | 100 | 1001.3 |
| 20260508051526 | 42 | 0 | 0.0 | 0.0 | 0.00 | 0.85 | 0.00 | 99 | 1001.0 |
| 20260508050029 | 43 | 0 | 0.0 | 0.0 | 0.00 | 0.85 | 0.00 | 99 | 1001.2 |
| 20260508044527 | 44 | 0 | 0.0 | 0.0 | 0.00 | 0.85 | 0.00 | 99 | 1001.3 |
| 20260508043028 | 44 | 0 | 0.0 | 0.0 | 0.00 | 0.85 | 0.00 | 99 | 1001.3 |
| 20260508041528 | 44 | 0 | 0.0 | 0.0 | 0.00 | 0.85 | 0.00 | 99 | 1001.5 |
| 20260508040034 | 44 | 0 | 0.0 | 1.0 | 0.00 | 0.85 | 0.00 | 99 | 1001.6 |
| 20260508034535 | 44 | 252 | 0.0 | 4.0 | 0.00 | 0.85 | 0.00 | 99 | 1001.9 |
| 20260508033029 | 43 | 244 | 1.0 | 3.0 | 0.00 | 0.85 | 0.00 | 99 | 1001.9 |
| 20260508031527 | 43 | 242 | 3.0 | 6.0 | 0.00 | 0.85 | 0.00 | 99 | 1002.0 |
| 20260508030029 | 43 | 229 | 2.0 | 6.0 | 0.00 | 0.85 | 0.00 | 99 | 1002.3 |
| 20260508024528 | 43 | 248 | 3.0 | 7.0 | 0.00 | 0.85 | 0.85 | 99 | 1001.9 |
| 20260508023035 | 43 | 221 | 5.0 | 8.0 | 0.00 | 0.85 | 0.85 | 99 | 1001.8 |
| 20260508021527 | 43 | 236 | 3.0 | 8.0 | 0.00 | 0.85 | 0.85 | 99 | 1001.9 |
| 20260508020028 | 42 | 228 | 4.0 | 9.0 | 0.00 | 0.85 | 0.85 | 99 | 1002.1 |
| 20260508014528 | 42 | 225 | 6.0 | 10.0 | 0.00 | 0.85 | 0.85 | 99 | 1002.3 |
| 20260508013028 | 43 | 201 | 3.0 | 7.0 | 0.00 | 0.85 | 0.85 | 99 | 1002.2 |
| 20260508011529 | 43 | 175 | 2.0 | 6.0 | 0.00 | 0.85 | 0.85 | 99 | 1002.3 |
| 20260508010030 | 43 | 220 | 3.0 | 11.0 | 0.00 | 0.85 | 0.85 | 99 | 1002.0 |
| 20260508004606 | 43 | 200 | 5.0 | 12.0 | 0.00 | 0.85 | 0.85 | 99 | 1002.4 |
| 20260508004532 | 43 | 200 | 5.0 | 12.0 | 0.00 | 0.85 | 0.85 | 99 | 1002.4 |
| 20260508003032 | 43 | 207 | 5.0 | 11.0 | 0.00 | 0.85 | 0.85 | 99 | 1002.7 |
| 20260508001544 | 43 | 209 | 4.0 | 9.0 | 0.00 | 0.85 | 0.85 | 99 | 1002.7 |
| 20260508000027 | 43 | 196 | 4.0 | 13.0 | 0.00 | 0.85 | 0.85 | 99 | 1002.9 |
| 20260507234529 | 43 | 198 | 7.0 | 12.0 | 0.00 | 0.85 | 0.85 | 99 | 1003.0 |
| 20260507233034 | 43 | 195 | 6.0 | 14.0 | 0.00 | 0.85 | 0.85 | 98 | 1002.8 |
| 20260507231531 | 44 | 204 | 7.0 | 14.0 | 0.00 | 0.85 | 0.85 | 98 | 1003.1 |
| 20260507230035 | 44 | 221 | 5.0 | 13.0 | 0.00 | 0.85 | 0.85 | 98 | 1003.0 |
| 20260507224533 | 45 | 219 | 6.0 | 12.0 | 0.01 | 0.85 | 0.85 | 98 | 1003.1 |
| 20260507223027 | 45 | 240 | 4.0 | 11.0 | 0.01 | 0.85 | 0.85 | 99 | 1003.3 |
| 20260507221528 | 46 | 126 | 6.0 | 12.0 | 0.01 | 0.85 | 0.85 | 99 | 1003.3 |
| 20260507220031 | 46 | 217 | 4.0 | 11.0 | 0.05 | 0.85 | 0.85 | 99 | 1003.7 |
| 20260507214530 | 46 | 147 | 5.0 | 15.0 | 0.09 | 0.84 | 0.84 | 99 | 1003.4 |
| 20260507213036 | 46 | 136 | 6.0 | 10.0 | 0.16 | 0.84 | 0.84 | 99 | 1002.9 |
| 20260507211543 | 46 | 165 | 5.0 | 13.0 | 0.23 | 0.83 | 0.83 | 98 | 1003.8 |
| 20260507210028 | 46 | 221 | 5.0 | 16.0 | 0.30 | 0.80 | 0.80 | 99 | 1004.2 |
| 20260507204528 | 46 | 180 | 5.0 | 15.0 | 0.43 | 0.75 | 0.75 | 99 | 1004.5 |
| 20260507203028 | 45 | 174 | 4.0 | 15.0 | 0.44 | 0.67 | 0.67 | 98 | 1005.2 |
| 20260507201536 | 45 | 226 | 12.0 | 17.0 | 0.42 | 0.58 | 0.58 | 98 | 1005.3 |
| 20260507200034 | 45 | 135 | 7.0 | 19.0 | 0.36 | 0.49 | 0.49 | 98 | 1004.9 |
| 20260507194527 | 45 | 200 | 5.0 | 11.0 | 0.23 | 0.31 | 0.31 | 98 | 1005.5 |